Time;durP1;ratioP1;P1;durP2;ratioP2;P2;SDS_P1;SDS_P2;PMS_P1;PMS_P2;Temp;Humidity;BMP_temperature;BMP_pressure;BME280_temperature;BME280_humidity;BME280_pressure;Samples;Min_cycle;Max_cycle;Signal;HPM_P1;HPM_P2
2023/06/30 00:02:21;;;;;;;11.75;9.73;;;19.50;99.90;;;;;;6275854;28;20048;-80
2023/06/30 00:05:25;;;;;;;13.45;10.57;;;19.40;99.90;;;;;;6276377;28;20052;-79
2023/06/30 00:08:27;;;;;;;9.65;8.07;;;19.30;99.90;;;;;;6277284;28;20496;-79
2023/06/30 00:11:28;;;;;;;12.85;10.07;;;19.20;99.90;;;;;;6276913;28;20120;-80
2023/06/30 00:14:30;;;;;;;10.40;9.40;;;19.20;99.90;;;;;;6275484;28;20406;-80
2023/06/30 00:17:33;;;;;;;11.30;10.13;;;19.20;99.90;;;;;;6276595;28;20055;-80
2023/06/30 00:20:35;;;;;;;18.25;10.55;;;19.30;99.90;;;;;;6275214;28;20500;-80
2023/06/30 00:23:36;;;;;;;14.93;9.43;;;19.30;99.90;;;;;;6276129;28;20051;-80
2023/06/30 00:26:38;;;;;;;11.13;9.60;;;19.50;99.90;;;;;;6277885;28;20052;-80
2023/06/30 00:29:40;;;;;;;13.85;9.30;;;19.50;99.90;;;;;;6277135;28;20527;-79
2023/06/30 00:32:43;;;;;;;9.95;8.93;;;19.40;99.90;;;;;;6286810;28;20542;-80
2023/06/30 00:35:45;;;;;;;10.73;8.95;;;19.40;99.90;;;;;;6281368;28;20056;-80
2023/06/30 00:38:46;;;;;;;11.63;9.50;;;19.30;99.90;;;;;;6277402;28;20112;-79
2023/06/30 00:41:48;;;;;;;12.25;10.95;;;19.20;99.90;;;;;;6277072;28;20399;-79
2023/06/30 00:44:50;;;;;;;13.02;9.45;;;19.20;99.90;;;;;;6277057;28;20049;-79
2023/06/30 00:47:53;;;;;;;9.98;8.98;;;19.20;99.90;;;;;;6276659;28;20055;-79
2023/06/30 00:50:54;;;;;;;12.48;8.82;;;19.10;99.90;;;;;;6275826;28;20045;-80
2023/06/30 00:53:57;;;;;;;12.48;9.77;;;19.10;99.90;;;;;;6275875;28;20048;-79
2023/06/30 00:57:00;;;;;;;13.73;10.05;;;19.00;99.90;;;;;;6269299;28;20056;-80
2023/06/30 01:00:05;;;;;;;14.50;10.07;;;19.00;99.90;;;;;;6283817;28;20131;-79
2023/06/30 01:03:16;;;;;;;11.88;10.18;;;19.00;99.90;;;;;;6282771;28;20395;-79
2023/06/30 01:06:25;;;;;;;11.35;10.18;;;19.00;99.90;;;;;;6270426;28;20128;-79
2023/06/30 01:09:33;;;;;;;13.93;10.07;;;18.90;99.90;;;;;;6273629;28;20052;-79
2023/06/30 01:12:36;;;;;;;12.95;9.73;;;18.90;99.90;;;;;;6275730;28;20064;-79
2023/06/30 01:15:39;;;;;;;11.30;9.40;;;18.90;99.90;;;;;;6275362;28;20078;-80
2023/06/30 01:18:45;;;;;;;12.25;9.57;;;18.90;99.90;;;;;;6262319;28;20056;-79
2023/06/30 01:21:47;;;;;;;12.38;10.63;;;18.90;99.90;;;;;;6255858;28;20052;-81
2023/06/30 01:24:52;;;;;;;14.93;12.30;;;18.90;99.90;;;;;;6250947;28;20042;-80
2023/06/30 01:27:55;;;;;;;12.10;9.18;;;18.80;99.90;;;;;;6273673;28;20061;-81
2023/06/30 01:30:57;;;;;;;11.23;9.32;;;18.80;99.90;;;;;;6262346;28;20049;-81
2023/06/30 01:34:01;;;;;;;18.40;10.90;;;18.80;99.90;;;;;;6257390;28;20045;-80
2023/06/30 01:37:03;;;;;;;13.50;10.77;;;18.70;99.90;;;;;;6276581;28;20045;-80
2023/06/30 01:40:06;;;;;;;16.08;10.55;;;18.70;99.90;;;;;;6275065;28;20049;-80
2023/06/30 01:43:07;;;;;;;14.68;10.02;;;18.60;99.90;;;;;;6259650;28;20512;-80
2023/06/30 01:46:09;;;;;;;13.30;10.48;;;18.60;99.90;;;;;;6258445;28;20401;-80
2023/06/30 01:49:14;;;;;;;12.65;11.20;;;18.60;99.90;;;;;;6259356;28;20500;-80
2023/06/30 01:52:16;;;;;;;14.00;10.02;;;18.60;99.90;;;;;;6283526;28;20492;-80
2023/06/30 01:55:18;;;;;;;11.98;9.73;;;18.60;99.90;;;;;;6257631;28;20053;-81
2023/06/30 01:58:19;;;;;;;13.05;9.93;;;18.60;99.90;;;;;;6257460;28;20072;-81
2023/06/30 02:01:21;;;;;;;12.07;10.23;;;18.70;99.90;;;;;;6273996;28;20515;-81
2023/06/30 02:04:24;;;;;;;16.58;11.00;;;18.70;99.90;;;;;;6279651;28;20040;-81
2023/06/30 02:07:26;;;;;;;11.50;8.98;;;18.80;99.90;;;;;;6260519;28;20049;-81
2023/06/30 02:10:28;;;;;;;10.55;9.45;;;18.90;99.90;;;;;;6251648;28;20052;-81
2023/06/30 02:13:29;;;;;;;12.10;10.13;;;18.80;99.90;;;;;;6254748;28;20077;-81
2023/06/30 02:16:31;;;;;;;14.43;12.15;;;18.90;99.90;;;;;;6277415;28;20049;-82
2023/06/30 02:19:34;;;;;;;14.13;10.30;;;18.90;99.90;;;;;;6276512;28;20059;-81
2023/06/30 02:22:37;;;;;;;15.20;11.48;;;18.90;99.90;;;;;;6269867;28;20085;-80
2023/06/30 02:25:39;;;;;;;10.63;9.63;;;19.10;99.90;;;;;;6256025;28;20075;-81
2023/06/30 02:28:41;;;;;;;18.05;13.23;;;19.10;99.90;;;;;;6274604;28;20053;-80
2023/06/30 02:31:42;;;;;;;10.23;9.23;;;19.20;99.90;;;;;;6273638;28;20047;-81
2023/06/30 02:34:45;;;;;;;12.20;10.93;;;19.20;99.90;;;;;;6273363;28;20056;-81
2023/06/30 02:37:47;;;;;;;13.23;11.82;;;19.20;99.90;;;;;;6273371;28;20053;-81
2023/06/30 02:40:49;;;;;;;14.75;11.70;;;19.20;99.90;;;;;;6273756;28;20045;-81
2023/06/30 02:43:50;;;;;;;12.93;11.55;;;19.00;99.90;;;;;;6275864;28;20048;-82
2023/06/30 02:46:52;;;;;;;15.52;12.38;;;18.90;99.90;;;;;;6277378;28;20045;-83
2023/06/30 02:49:55;;;;;;;17.35;13.38;;;18.60;99.90;;;;;;6277396;28;20419;-84
2023/06/30 02:52:57;;;;;;;20.17;16.88;;;18.30;99.90;;;;;;6289510;28;20476;-80
2023/06/30 02:55:58;;;;;;;21.67;19.42;;;18.10;99.90;;;;;;6275160;28;20049;-82
2023/06/30 02:59:00;;;;;;;21.55;19.35;;;18.20;99.90;;;;;;6274378;28;20045;-82
2023/06/30 03:02:02;;;;;;;23.25;17.60;;;18.20;99.90;;;;;;6273732;28;20052;-82
2023/06/30 03:05:07;;;;;;;22.25;19.52;;;18.30;99.90;;;;;;6273920;28;20507;-82
2023/06/30 03:08:10;;;;;;;28.02;21.35;;;18.30;99.90;;;;;;6272250;28;20067;-82
2023/06/30 03:11:12;;;;;;;21.33;19.13;;;18.40;99.90;;;;;;6272767;28;20055;-83
2023/06/30 03:14:13;;;;;;;24.25;21.33;;;18.40;99.90;;;;;;6271676;28;20052;-83
2023/06/30 03:17:18;;;;;;;22.38;18.15;;;18.20;99.90;;;;;;6271025;28;20049;-82
2023/06/30 03:20:21;;;;;;;24.02;21.25;;;18.20;99.90;;;;;;6272845;28;20175;-81
2023/06/30 03:23:23;;;;;;;22.33;20.10;;;18.10;99.90;;;;;;6272854;28;20639;-83
2023/06/30 03:26:28;;;;;;;22.77;19.73;;;18.20;99.90;;;;;;6255050;28;20053;-81
2023/06/30 03:29:30;;;;;;;23.25;20.60;;;18.20;99.90;;;;;;6247368;28;20052;-83
2023/06/30 03:32:31;;;;;;;24.75;21.33;;;18.20;99.90;;;;;;6254232;28;20054;-81
2023/06/30 03:35:34;;;;;;;25.38;21.52;;;18.20;99.90;;;;;;6275242;28;20040;-82
2023/06/30 03:38:36;;;;;;;23.55;21.02;;;18.20;99.90;;;;;;6272296;28;20048;-82
2023/06/30 03:41:38;;;;;;;22.77;20.15;;;18.30;99.90;;;;;;6261143;28;20049;-82
2023/06/30 03:45:19;;;;;;;24.65;19.65;;;18.30;99.90;;;;;;6279708;28;20052;-82
2023/06/30 03:48:21;;;;;;;24.45;21.58;;;18.30;99.90;;;;;;6279015;28;20080;-82
2023/06/30 03:51:27;;;;;;;27.00;22.70;;;18.30;99.90;;;;;;6280205;28;20060;-82
2023/06/30 03:54:28;;;;;;;21.17;18.98;;;18.30;99.90;;;;;;6269529;28;20053;-82
2023/06/30 03:57:30;;;;;;;29.58;20.67;;;18.40;99.90;;;;;;6252325;28;20046;-82
2023/06/30 04:00:35;;;;;;;23.40;21.00;;;18.40;99.90;;;;;;6253981;28;20138;-82
2023/06/30 04:03:37;;;;;;;25.50;22.77;;;18.50;99.90;;;;;;6271270;28;20124;-83
2023/06/30 04:06:42;;;;;;;23.38;20.85;;;18.60;99.90;;;;;;6263952;28;20048;-82
2023/06/30 04:09:52;;;;;;;25.98;22.60;;;18.70;99.90;;;;;;6244535;28;20178;-82
2023/06/30 04:12:54;;;;;;;26.77;23.83;;;18.70;99.90;;;;;;6276684;28;20064;-83
2023/06/30 04:15:56;;;;;;;28.55;25.65;;;18.60;99.90;;;;;;6275215;28;20045;-83
2023/06/30 04:19:08;;;;;;;28.15;24.92;;;18.60;99.90;;;;;;6261592;28;20140;-83
2023/06/30 04:25:48;;;;;;;28.05;25.23;;;18.50;99.90;;;;;;6235339;28;20048;-81
2023/06/30 04:28:50;;;;;;;28.77;24.95;;;18.50;99.90;;;;;;6277135;28;20401;-83
2023/06/30 04:31:51;;;;;;;28.25;25.38;;;18.50;99.90;;;;;;6256264;28;20045;-82
2023/06/30 04:34:53;;;;;;;26.42;23.63;;;18.50;99.90;;;;;;6265928;28;20049;-82
2023/06/30 04:37:56;;;;;;;30.40;26.27;;;18.60;99.90;;;;;;6276998;28;20397;-81
2023/06/30 04:40:58;;;;;;;39.63;29.02;;;18.70;99.90;;;;;;6277422;28;20084;-82
2023/06/30 04:44:00;;;;;;;31.15;28.08;;;18.70;99.90;;;;;;6277429;28;20057;-81
2023/06/30 04:47:01;;;;;;;30.58;27.08;;;18.70;99.90;;;;;;6277006;28;20045;-82
2023/06/30 04:50:04;;;;;;;30.23;25.70;;;18.80;99.90;;;;;;6277413;28;20130;-82
2023/06/30 04:53:07;;;;;;;30.63;26.80;;;18.90;99.90;;;;;;6277811;28;20121;-82
2023/06/30 04:56:09;;;;;;;28.92;25.92;;;19.00;99.90;;;;;;6276384;28;20420;-82
2023/06/30 04:59:28;;;;;;;28.10;24.52;;;19.10;99.90;;;;;;6265462;28;20056;-82
2023/06/30 05:41:21;;;;;;;42.83;38.45;;;19.60;99.90;;;;;;6086810;28;20046;-81
2023/06/30 05:44:33;;;;;;;30.85;27.55;;;19.90;99.90;;;;;;6200592;28;20054;-81
2023/06/30 05:47:47;;;;;;;32.78;23.13;;;20.10;99.90;;;;;;6270074;28;20520;-81
2023/06/30 05:50:49;;;;;;;35.70;21.52;;;20.30;99.90;;;;;;6273707;28;20625;-81
2023/06/30 05:54:01;;;;;;;22.85;20.42;;;20.40;99.90;;;;;;6284504;28;20542;-81
2023/06/30 05:57:04;;;;;;;22.63;20.20;;;20.60;99.90;;;;;;6301811;28;20098;-81
2023/06/30 06:03:39;;;;;;;30.20;27.13;;;20.70;99.90;;;;;;6296889;28;20045;-80
2023/06/30 06:06:47;;;;;;;18.27;16.48;;;20.90;99.90;;;;;;6299397;28;20074;-81
2023/06/30 06:09:55;;;;;;;;;;;20.90;99.90;;;;;;6278002;28;20128;-83
2023/06/30 06:16:59;;;;;;;19.40;16.88;;;20.90;99.90;;;;;;6270691;28;20049;-81
2023/06/30 06:20:03;;;;;;;20.00;17.75;;;21.00;99.90;;;;;;6274573;28;20049;-81
2023/06/30 06:23:11;;;;;;;18.67;16.38;;;20.90;99.90;;;;;;6274848;28;20055;-83
2023/06/30 06:29:47;;;;;;;21.08;19.17;;;21.00;99.90;;;;;;6282408;28;20093;-81
2023/06/30 06:32:57;;;;;;;23.00;17.48;;;21.00;99.90;;;;;;6299276;28;20052;-81
2023/06/30 06:41:30;;;;;;;;;;;;;;;;;;;;;
2023/06/30 07:00:59;;;;;;;19.00;17.00;;;20.90;99.90;;;;;;6058867;29;20136;-81
2023/06/30 07:07:36;;;;;;;18.40;16.50;;;21.30;99.90;;;;;;6075937;29;20508;-81
2023/06/30 07:10:38;;;;;;;19.58;14.90;;;21.50;99.90;;;;;;6105418;28;20055;-81
2023/06/30 07:18:01;;;;;;;17.55;14.23;;;21.80;99.90;;;;;;6248139;28;20048;-81
2023/06/30 07:21:14;;;;;;;20.60;16.90;;;22.10;99.90;;;;;;6286886;28;20048;-82
2023/06/30 07:24:17;;;;;;;21.48;14.23;;;22.20;99.90;;;;;;6265487;28;20499;-80
2023/06/30 07:27:30;;;;;;;15.88;13.88;;;22.10;99.90;;;;;;6266410;28;20160;-81
2023/06/30 07:30:36;;;;;;;16.10;13.95;;;22.10;99.90;;;;;;6257301;28;20071;-81
2023/06/30 07:37:12;;;;;;;21.63;16.27;;;22.10;99.90;;;;;;6267311;28;20093;-80
2023/06/30 07:40:15;;;;;;;18.20;16.27;;;22.20;99.90;;;;;;6266222;28;20055;-80
2023/06/30 07:43:18;;;;;;;22.42;16.17;;;22.20;99.90;;;;;;6266779;28;20071;-79
2023/06/30 07:46:23;;;;;;;28.52;17.27;;;22.20;99.90;;;;;;6268191;28;20048;-81
2023/06/30 07:49:41;;;;;;;23.67;17.77;;;22.10;99.90;;;;;;6267095;28;20049;-80
2023/06/30 07:53:21;;;;;;;26.45;17.33;;;22.10;99.90;;;;;;6268639;28;20041;-80
2023/06/30 07:56:22;;;;;;;27.08;19.50;;;22.00;99.90;;;;;;6265527;28;20057;-79
2023/06/30 07:59:33;;;;;;;27.95;20.73;;;22.00;99.90;;;;;;6262376;28;20127;-83
2023/06/30 08:02:36;;;;;;;24.85;20.15;;;22.00;99.90;;;;;;6269956;28;20041;-81
2023/06/30 08:05:39;;;;;;;26.35;20.48;;;21.90;99.90;;;;;;6273428;28;20112;-81
2023/06/30 08:08:40;;;;;;;25.73;21.63;;;21.80;99.90;;;;;;6295286;28;20049;-81
2023/06/30 08:11:45;;;;;;;26.67;20.30;;;21.80;99.90;;;;;;6272330;28;20071;-80
2023/06/30 08:14:49;;;;;;;27.60;20.08;;;21.70;99.90;;;;;;6268037;28;20472;-82
2023/06/30 08:17:54;;;;;;;25.13;19.88;;;21.70;99.90;;;;;;6268327;28;20048;-80
2023/06/30 08:21:01;;;;;;;26.75;20.90;;;21.70;99.90;;;;;;6271675;28;20428;-81
2023/06/30 08:24:03;;;;;;;26.30;19.13;;;21.70;99.90;;;;;;6268981;28;20052;-81
2023/06/30 08:27:08;;;;;;;32.63;22.83;;;21.60;99.90;;;;;;6286400;28;20291;-80
2023/06/30 08:30:11;;;;;;;30.70;22.30;;;21.50;99.90;;;;;;6284166;28;20048;-80
2023/06/30 08:33:13;;;;;;;26.35;22.60;;;21.50;99.90;;;;;;6270142;28;20180;-81
2023/06/30 08:36:24;;;;;;;28.30;23.15;;;21.50;99.90;;;;;;6265156;28;20052;-80
2023/06/30 08:39:27;;;;;;;33.78;23.02;;;21.50;99.90;;;;;;6265588;28;20499;-79
2023/06/30 08:42:32;;;;;;;29.60;23.88;;;21.30;99.90;;;;;;6279045;28;20064;-82
2023/06/30 08:45:37;;;;;;;29.35;22.75;;;21.30;99.90;;;;;;6294706;28;20431;-81
2023/06/30 08:48:47;;;;;;;29.30;23.52;;;21.20;99.90;;;;;;6293249;28;20186;-80
2023/06/30 08:51:54;;;;;;;30.65;22.80;;;21.20;99.90;;;;;;6293462;28;20079;-81
2023/06/30 08:54:56;;;;;;;30.27;22.27;;;21.30;99.90;;;;;;6291769;28;20063;-81
2023/06/30 08:57:58;;;;;;;30.92;23.42;;;21.40;99.90;;;;;;6287498;28;20496;-81
2023/06/30 09:01:00;;;;;;;26.83;21.75;;;21.40;99.90;;;;;;6276116;28;20523;-80
2023/06/30 09:04:04;;;;;;;27.73;20.95;;;21.50;99.90;;;;;;6257031;28;20094;-80
2023/06/30 09:07:08;;;;;;;28.95;21.70;;;21.50;99.90;;;;;;6279864;28;20041;-80
2023/06/30 09:10:11;;;;;;;30.95;23.30;;;21.40;99.90;;;;;;6282031;28;20064;-81
2023/06/30 09:13:14;;;;;;;31.13;21.65;;;21.50;99.90;;;;;;6266596;28;20527;-80
2023/06/30 09:16:17;;;;;;;29.10;21.83;;;21.40;99.90;;;;;;6268177;28;20043;-80
2023/06/30 09:19:19;;;;;;;34.03;23.73;;;21.30;99.90;;;;;;6268836;28;20049;-80
2023/06/30 09:22:22;;;;;;;31.00;22.33;;;21.30;99.90;;;;;;6268406;28;20060;-80
2023/06/30 09:25:41;;;;;;;32.45;20.88;;;21.20;99.90;;;;;;6267691;28;20041;-80
2023/06/30 09:28:43;;;;;;;30.98;24.17;;;21.30;99.90;;;;;;6270489;28;20380;-80
2023/06/30 09:31:50;;;;;;;30.63;23.38;;;21.30;99.90;;;;;;6263989;28;20053;-81
2023/06/30 09:35:05;;;;;;;26.77;22.25;;;21.30;99.90;;;;;;6277067;28;20070;-80
2023/06/30 09:38:16;;;;;;;33.25;24.25;;;21.40;99.90;;;;;;6280308;28;20083;-80
2023/06/30 09:41:22;;;;;;;27.33;22.15;;;21.40;99.90;;;;;;6257370;28;20067;-80
2023/06/30 09:44:24;;;;;;;28.05;23.98;;;21.50;99.90;;;;;;6267312;28;20503;-80
2023/06/30 09:47:27;;;;;;;28.25;21.25;;;21.50;99.90;;;;;;6269707;28;20043;-79
2023/06/30 09:50:31;;;;;;;28.15;21.67;;;21.60;99.90;;;;;;6277147;28;20049;-82
2023/06/30 09:53:38;;;;;;;31.05;23.23;;;21.70;99.90;;;;;;6272095;28;20462;-80
2023/06/30 09:56:41;;;;;;;28.77;23.65;;;21.80;99.90;;;;;;6270438;28;20156;-82
2023/06/30 09:59:43;;;;;;;27.15;21.02;;;21.90;99.90;;;;;;6282957;28;20052;-81
2023/06/30 10:02:45;;;;;;;27.65;22.10;;;22.00;99.90;;;;;;6280524;28;20048;-81
2023/06/30 10:05:48;;;;;;;28.20;20.92;;;22.10;99.90;;;;;;6271230;28;20060;-79
2023/06/30 10:08:52;;;;;;;31.67;22.05;;;22.30;99.90;;;;;;6266808;28;20041;-79
2023/06/30 10:11:56;;;;;;;28.52;22.00;;;22.40;99.90;;;;;;6269366;28;20060;-79
2023/06/30 10:14:59;;;;;;;27.27;22.77;;;22.60;99.90;;;;;;6268692;28;20057;-80
2023/06/30 10:18:01;;;;;;;25.27;21.00;;;22.80;99.90;;;;;;6270141;28;20503;-81
2023/06/30 10:21:03;;;;;;;29.15;22.17;;;23.00;99.90;;;;;;6290233;28;20141;-80
2023/06/30 10:24:08;;;;;;;27.90;21.65;;;23.20;99.90;;;;;;6280349;28;20190;-80
2023/06/30 10:27:13;;;;;;;37.25;22.33;;;23.30;99.90;;;;;;6283638;28;20045;-81
2023/06/30 10:30:15;;;;;;;28.67;21.83;;;23.40;99.90;;;;;;6276093;28;20095;-80
2023/06/30 10:33:17;;;;;;;26.30;20.92;;;23.60;99.90;;;;;;6261407;28;20053;-80
2023/06/30 10:36:20;;;;;;;25.05;20.23;;;23.70;99.90;;;;;;6262541;28;20048;-81
2023/06/30 10:39:29;;;;;;;27.83;20.65;;;23.70;99.90;;;;;;6268640;28;20064;-80
2023/06/30 10:42:37;;;;;;;24.70;20.77;;;23.60;99.90;;;;;;6284876;28;20059;-81
2023/06/30 10:46:03;;;;;;;23.77;21.17;;;23.70;99.90;;;;;;6295077;28;20044;-81
2023/06/30 10:49:06;;;;;;;28.23;19.63;;;23.90;99.90;;;;;;6295998;28;20048;-80
2023/06/30 10:52:09;;;;;;;27.02;20.05;;;24.10;99.90;;;;;;6278070;28;20061;-82
2023/06/30 10:55:14;;;;;;;26.75;21.73;;;24.40;99.90;;;;;;6287556;28;20040;-80
2023/06/30 10:58:23;;;;;;;24.85;18.45;;;24.60;99.90;;;;;;6290180;28;20044;-82
2023/06/30 11:01:24;;;;;;;23.13;19.10;;;24.70;99.90;;;;;;6272138;28;20056;-80
2023/06/30 11:04:26;;;;;;;24.83;19.95;;;25.20;99.90;;;;;;6269184;28;20049;-81
2023/06/30 11:07:29;;;;;;;26.90;20.70;;;25.30;99.90;;;;;;6285154;28;20467;-82
2023/06/30 11:10:44;;;;;;;25.35;20.77;;;25.60;99.90;;;;;;6285751;28;20048;-79
2023/06/30 11:13:47;;;;;;;25.42;21.05;;;25.60;99.90;;;;;;6271261;28;20057;-83
2023/06/30 11:17:03;;;;;;;28.35;19.58;;;25.60;99.90;;;;;;6271325;28;20532;-81
2023/06/30 11:20:12;;;;;;;26.27;21.83;;;26.10;99.90;;;;;;6272597;28;20048;-80
2023/06/30 11:23:18;;;;;;;34.03;21.23;;;26.20;99.90;;;;;;6287517;28;20049;-81
2023/06/30 11:26:21;;;;;;;24.50;21.38;;;26.10;99.90;;;;;;6287479;28;23083;-81
2023/06/30 11:29:23;;;;;;;26.15;19.63;;;26.10;99.90;;;;;;6267963;28;20724;-82
2023/06/30 11:32:27;;;;;;;25.45;19.95;;;26.00;99.90;;;;;;6272012;28;20614;-82
2023/06/30 11:35:30;;;;;;;24.50;21.00;;;26.20;99.90;;;;;;6287521;28;20049;-80
2023/06/30 11:38:31;;;;;;;26.33;20.95;;;26.20;99.90;;;;;;6284483;28;20063;-81
2023/06/30 11:41:34;;;;;;;26.45;20.70;;;26.10;99.90;;;;;;6272077;28;20049;-81
2023/06/30 11:44:37;;;;;;;24.80;19.60;;;26.30;99.90;;;;;;6295139;28;20572;-82
2023/06/30 11:47:44;;;;;;;22.23;19.85;;;26.80;99.90;;;;;;6293417;28;20040;-82
2023/06/30 11:50:46;;;;;;;22.73;20.05;;;27.40;99.90;;;;;;6283883;28;20545;-82
2023/06/30 11:53:48;;;;;;;17.67;15.77;;;27.90;99.90;;;;;;6271926;28;20057;-81
2023/06/30 11:56:51;;;;;;;16.50;13.98;;;28.30;99.90;;;;;;6272768;28;20057;-82
2023/06/30 11:59:53;;;;;;;15.45;12.13;;;28.20;99.90;;;;;;6270949;28;20048;-82
2023/06/30 12:02:57;;;;;;;15.65;13.05;;;27.60;99.90;;;;;;6270363;28;20044;-82
2023/06/30 12:05:59;;;;;;;18.52;11.95;;;26.80;99.90;;;;;;6272171;28;20056;-81
2023/06/30 12:09:02;;;;;;;13.88;11.63;;;26.20;99.90;;;;;;6271750;28;20151;-83
2023/06/30 12:12:07;;;;;;;14.07;10.98;;;25.40;99.90;;;;;;6273344;28;20045;-83
2023/06/30 12:15:11;;;;;;;14.43;12.80;;;24.80;99.90;;;;;;6277798;28;20053;-83
2023/06/30 12:18:13;;;;;;;15.70;14.10;;;23.90;99.90;;;;;;6275923;28;20063;-80
2023/06/30 12:21:15;;;;;;;23.33;16.58;;;23.20;99.90;;;;;;6273975;28;20087;-83
2023/06/30 12:24:19;;;;;;;59.35;23.40;;;22.90;99.90;;;;;;6270430;28;20065;-81
2023/06/30 12:27:22;;;;;;;26.02;17.00;;;22.60;99.90;;;;;;6272307;28;20401;-79
2023/06/30 12:30:24;;;;;;;20.80;12.38;;;21.80;99.90;;;;;;6278563;28;20124;-79
2023/06/30 12:33:28;;;;;;;0.47;0.47;;;20.80;99.90;;;;;;6270582;28;21677;-78
2023/06/30 12:36:30;;;;;;;0.20;0.20;;;20.00;99.90;;;;;;6266445;28;20049;-79
2023/06/30 12:39:33;;;;;;;0.10;0.10;;;19.30;99.90;;;;;;6266540;28;20056;-78
2023/06/30 12:42:36;;;;;;;0.10;0.10;;;19.00;99.90;;;;;;6266191;28;20420;-78
2023/06/30 12:45:37;;;;;;;0.80;0.80;;;18.80;99.90;;;;;;6266901;28;20052;-79
2023/06/30 12:48:39;;;;;;;0.15;0.15;;;18.80;99.90;;;;;;6268681;28;20056;-80
2023/06/30 12:51:41;;;;;;;0.13;0.13;;;18.70;99.90;;;;;;6272215;28;20066;-79
2023/06/30 12:54:42;;;;;;;0.10;0.10;;;18.80;99.90;;;;;;6274227;28;20052;-80
2023/06/30 12:57:45;;;;;;;0.10;0.10;;;19.00;99.90;;;;;;6274063;28;20056;-78
2023/06/30 13:00:47;;;;;;;0.10;0.10;;;19.00;99.90;;;;;;6268863;28;20064;-80
2023/06/30 13:03:49;;;;;;;0.20;0.20;;;18.80;99.90;;;;;;6268340;28;20053;-80
2023/06/30 13:06:50;;;;;;;0.20;0.20;;;18.60;99.90;;;;;;6268107;28;20056;-78
2023/06/30 13:09:52;;;;;;;0.20;0.20;;;18.50;99.90;;;;;;6268811;28;20064;-79
2023/06/30 13:12:55;;;;;;;0.20;0.20;;;18.50;99.90;;;;;;6273633;28;20045;-80
2023/06/30 13:15:57;;;;;;;0.10;0.10;;;18.50;99.90;;;;;;6268635;28;20097;-78
2023/06/30 13:18:58;;;;;;;0.20;0.20;;;18.50;99.90;;;;;;6270694;28;20041;-80
2023/06/30 13:22:00;;;;;;;0.10;0.10;;;18.60;99.90;;;;;;6272751;28;20506;-79
2023/06/30 13:25:02;;;;;;;0.30;0.30;;;18.70;99.90;;;;;;6272855;28;21448;-78
2023/06/30 13:28:05;;;;;;;0.20;0.20;;;18.70;99.90;;;;;;6269173;28;20496;-80
2023/06/30 13:31:07;;;;;;;0.17;0.17;;;18.80;99.90;;;;;;6273838;28;20041;-79
2023/06/30 13:34:09;;;;;;;0.10;0.10;;;19.00;99.90;;;;;;6271091;28;20104;-79
2023/06/30 13:37:11;;;;;;;0.20;0.20;;;18.90;99.90;;;;;;6274248;28;20063;-78
2023/06/30 13:40:13;;;;;;;0.20;0.20;;;19.00;99.90;;;;;;6272694;28;20041;-78
2023/06/30 13:43:16;;;;;;;7.22;1.55;;;19.20;99.90;;;;;;6274890;28;20045;-79
2023/06/30 13:46:17;;;;;;;0.73;0.73;;;19.30;99.90;;;;;;6270159;28;20059;-77
2023/06/30 13:49:19;;;;;;;0.10;0.10;;;19.40;99.90;;;;;;6266272;28;20055;-77
2023/06/30 13:52:21;;;;;;;0.10;0.10;;;19.60;99.90;;;;;;6272646;28;20045;-78
2023/06/30 13:55:24;;;;;;;0.10;0.10;;;19.70;99.90;;;;;;6275332;28;20056;-79
2023/06/30 13:58:27;;;;;;;1.23;1.17;;;19.90;99.90;;;;;;6274182;28;20136;-79
2023/06/30 14:01:28;;;;;;;0.10;0.10;;;20.30;99.90;;;;;;6274192;28;20417;-79
2023/06/30 14:04:30;;;;;;;0.30;0.30;;;20.60;99.90;;;;;;6277301;28;20049;-78
2023/06/30 14:07:32;;;;;;;16.85;7.95;;;20.80;99.90;;;;;;6268108;28;20041;-79
2023/06/30 14:10:34;;;;;;;19.50;12.68;;;20.90;99.90;;;;;;6274472;28;20060;-80
2023/06/30 14:13:37;;;;;;;22.42;17.40;;;20.80;99.90;;;;;;6269316;28;20049;-80
2023/06/30 14:16:39;;;;;;;25.60;17.33;;;20.70;99.90;;;;;;6268860;28;20076;-80
2023/06/30 14:19:40;;;;;;;30.42;19.92;;;20.70;99.90;;;;;;6265546;28;20044;-80
2023/06/30 14:22:42;;;;;;;27.25;19.58;;;20.70;99.90;;;;;;6267919;28;20055;-80
2023/06/30 14:25:44;;;;;;;28.05;22.77;;;20.70;99.90;;;;;;6268538;28;20377;-80
2023/06/30 14:28:48;;;;;;;31.08;22.73;;;21.00;99.90;;;;;;6265366;28;20543;-80
2023/06/30 14:31:50;;;;;;;31.92;23.58;;;21.40;99.90;;;;;;6263587;28;20045;-80
2023/06/30 14:34:52;;;;;;;29.60;23.10;;;21.50;99.90;;;;;;6264518;28;20045;-81
2023/06/30 14:37:53;;;;;;;30.75;23.02;;;21.70;99.90;;;;;;6263973;28;20053;-80
2023/06/30 14:40:55;;;;;;;33.42;23.08;;;21.70;99.90;;;;;;6264629;28;20057;-80
2023/06/30 14:43:58;;;;;;;26.80;21.75;;;21.60;99.90;;;;;;6263845;28;20045;-79
2023/06/30 14:47:00;;;;;;;27.92;20.27;;;21.70;99.90;;;;;;6265151;28;20049;-80
2023/06/30 14:50:01;;;;;;;29.67;22.35;;;21.80;99.90;;;;;;6268546;28;20048;-82
2023/06/30 14:53:03;;;;;;;31.77;24.35;;;21.90;99.90;;;;;;6272042;28;20053;-80
2023/06/30 14:56:05;;;;;;;31.02;23.83;;;22.00;99.90;;;;;;6272723;28;20045;-79
2023/06/30 14:59:08;;;;;;;29.35;23.17;;;21.90;99.90;;;;;;6271775;28;20041;-79
2023/06/30 15:02:10;;;;;;;24.27;21.40;;;22.00;99.90;;;;;;6271482;28;20562;-80
2023/06/30 15:05:11;;;;;;;27.80;22.15;;;22.00;99.90;;;;;;6269657;28;20053;-80
2023/06/30 15:08:13;;;;;;;28.05;21.77;;;22.10;99.90;;;;;;6272809;28;20045;-79
2023/06/30 15:11:15;;;;;;;31.27;24.88;;;22.10;99.90;;;;;;6273746;28;20052;-81
2023/06/30 15:14:18;;;;;;;27.05;21.50;;;22.10;99.90;;;;;;6266408;28;20059;-80
2023/06/30 15:17:20;;;;;;;27.13;22.70;;;22.20;99.90;;;;;;6265621;28;20094;-80
2023/06/30 15:20:22;;;;;;;26.30;21.15;;;22.10;99.90;;;;;;6264652;28;20045;-79
2023/06/30 15:23:24;;;;;;;23.33;19.92;;;22.20;99.90;;;;;;6262751;28;20048;-79
2023/06/30 15:26:26;;;;;;;30.90;22.38;;;22.00;99.90;;;;;;6264271;28;20449;-79
2023/06/30 15:29:33;;;;;;;28.15;21.23;;;22.10;99.90;;;;;;6266080;28;20555;-78
2023/06/30 15:32:35;;;;;;;26.75;20.35;;;22.20;99.90;;;;;;6270734;28;20052;-79
2023/06/30 15:35:36;;;;;;;28.63;22.67;;;22.20;99.90;;;;;;6272904;28;20060;-79
2023/06/30 15:38:38;;;;;;;27.23;22.67;;;22.20;99.90;;;;;;6272574;28;20049;-79
2023/06/30 15:41:40;;;;;;;25.42;21.50;;;22.30;99.90;;;;;;6268687;28;20075;-82
2023/06/30 15:44:43;;;;;;;24.90;21.35;;;22.20;99.90;;;;;;6270326;28;20519;-79
2023/06/30 15:47:45;;;;;;;26.55;21.27;;;22.10;99.90;;;;;;6271274;28;20064;-80
2023/06/30 15:50:47;;;;;;;24.10;20.25;;;21.90;99.90;;;;;;6270681;28;20514;-81
2023/06/30 15:53:49;;;;;;;28.90;20.83;;;22.00;99.90;;;;;;6270561;28;20048;-83
2023/06/30 15:56:51;;;;;;;25.23;18.90;;;22.00;99.90;;;;;;6270943;28;20053;-81
2023/06/30 15:59:54;;;;;;;27.33;20.05;;;22.00;99.90;;;;;;6264149;28;20037;-78
2023/06/30 16:02:56;;;;;;;25.08;19.73;;;21.90;99.90;;;;;;6267791;28;20037;-79
2023/06/30 16:05:57;;;;;;;23.23;17.40;;;21.80;99.90;;;;;;6268959;28;20056;-81
2023/06/30 16:08:59;;;;;;;26.88;21.88;;;21.80;99.90;;;;;;6269395;28;21727;-79
2023/06/30 16:12:01;;;;;;;25.77;20.23;;;21.70;99.90;;;;;;6268537;28;20044;-79
2023/06/30 16:15:06;;;;;;;25.55;20.75;;;21.60;99.90;;;;;;6268035;28;20040;-81
2023/06/30 16:18:07;;;;;;;26.70;19.77;;;21.50;99.90;;;;;;6268675;28;20056;-79
2023/06/30 16:21:09;;;;;;;23.23;19.42;;;21.40;99.90;;;;;;6267452;28;20044;-81
2023/06/30 16:24:11;;;;;;;28.42;21.02;;;21.40;99.90;;;;;;6266284;28;20049;-80
2023/06/30 16:27:12;;;;;;;27.73;21.60;;;21.30;99.90;;;;;;6267282;28;20396;-80
2023/06/30 16:30:24;;;;;;;27.02;20.88;;;21.30;99.90;;;;;;6266343;28;20041;-81
2023/06/30 16:33:26;;;;;;;29.70;21.73;;;21.10;99.90;;;;;;6267816;28;20049;-80
2023/06/30 16:36:28;;;;;;;25.02;22.02;;;21.10;99.90;;;;;;6268278;28;20041;-81
2023/06/30 16:39:30;;;;;;;26.80;21.42;;;21.10;99.90;;;;;;6265568;28;20455;-78
2023/06/30 16:42:31;;;;;;;25.70;19.67;;;21.10;99.90;;;;;;6266885;28;20060;-78
2023/06/30 16:45:34;;;;;;;26.23;21.20;;;21.10;99.90;;;;;;6267322;28;20511;-78
2023/06/30 16:48:36;;;;;;;22.75;19.20;;;21.20;99.90;;;;;;6267619;28;20435;-79
2023/06/30 16:51:38;;;;;;;29.52;22.67;;;21.20;99.90;;;;;;6267159;28;20052;-81
2023/06/30 16:54:40;;;;;;;33.70;20.88;;;21.10;99.90;;;;;;6266655;28;20049;-79
2023/06/30 16:57:43;;;;;;;26.98;20.80;;;21.10;99.90;;;;;;6266906;28;20151;-81
2023/06/30 17:00:46;;;;;;;25.90;19.13;;;21.20;99.90;;;;;;6267945;28;20170;-82
2023/06/30 17:03:47;;;;;;;25.35;20.83;;;21.10;99.90;;;;;;6266733;28;20136;-79